createdAt,value
2022-10-13T00:01:09.079Z,90.03
2022-10-13T00:03:38.076Z,90.58
2022-10-13T00:06:08.426Z,90.41
2022-10-13T00:08:38.216Z,90.40
2022-10-13T00:11:12.071Z,90.05
2022-10-13T00:13:40.397Z,90.29
2022-10-13T00:16:10.110Z,90.62
2022-10-13T00:18:38.398Z,91.02
2022-10-13T00:21:09.247Z,90.46
2022-10-13T00:23:39.282Z,91.22
2022-10-13T00:26:09.690Z,91.23
2022-10-13T00:28:38.110Z,91.05
2022-10-13T00:31:15.210Z,91.64
2022-10-13T00:33:43.165Z,91.53
2022-10-13T00:36:11.252Z,91.38
2022-10-13T00:38:41.603Z,90.66
2022-10-13T00:41:09.624Z,91.29
2022-10-13T00:44:00.194Z,90.87
2022-10-13T00:46:29.898Z,90.71
2022-10-13T00:49:01.941Z,90.49
2022-10-13T00:51:35.373Z,90.94
2022-10-13T00:54:06.931Z,91.62
2022-10-13T00:56:37.983Z,91.87
2022-10-13T00:59:10.335Z,92.09
2022-10-13T01:01:40.454Z,91.64
2022-10-13T01:04:08.439Z,91.77
2022-10-13T01:06:36.331Z,92.15
2022-10-13T01:09:05.698Z,91.50
2022-10-13T01:11:49.568Z,91.40
2022-10-13T01:14:25.002Z,91.67
2022-10-13T01:17:03.218Z,92.04
2022-10-13T01:19:55.333Z,92.06
2022-10-13T01:22:40.572Z,92.28
2022-10-13T01:25:28.593Z,92.26
2022-10-13T01:28:24.572Z,91.74
2022-10-13T01:31:03.244Z,91.54
2022-10-13T01:33:40.521Z,91.56
2022-10-13T01:36:18.896Z,91.78
2022-10-13T01:38:54.082Z,91.56
2022-10-13T01:41:29.690Z,91.67
2022-10-13T01:44:05.150Z,92.00
2022-10-13T01:46:38.038Z,92.27
2022-10-13T01:49:09.883Z,92.23
2022-10-13T01:51:39.890Z,92.18
2022-10-13T01:54:08.375Z,92.42
2022-10-13T01:56:36.256Z,92.65
2022-10-13T01:59:09.844Z,92.39
2022-10-13T02:01:52.197Z,92.83
2022-10-13T02:04:32.255Z,92.90
2022-10-13T02:07:08.927Z,92.57
2022-10-13T02:09:45.497Z,93.65
2022-10-13T02:12:20.241Z,92.98
2022-10-13T02:14:50.704Z,93.11
2022-10-13T02:17:21.285Z,93.63
2022-10-13T02:19:49.250Z,93.98
2022-10-13T02:22:18.839Z,94.04
2022-10-13T02:24:46.908Z,94.36
2022-10-13T02:27:15.173Z,94.33
2022-10-13T02:29:54.328Z,94.58
2022-10-13T02:32:24.140Z,94.93
2022-10-13T02:34:54.257Z,94.89
2022-10-13T02:37:22.176Z,95.24
2022-10-13T02:39:50.097Z,95.14
2022-10-13T02:42:18.566Z,95.18
2022-10-13T02:44:47.073Z,94.33
2022-10-13T02:47:14.982Z,95.77
2022-10-13T02:49:44.193Z,95.17
2022-10-13T02:52:12.117Z,96.15
2022-10-13T02:54:43.079Z,95.70
2022-10-13T02:57:10.899Z,95.84
2022-10-13T02:59:38.738Z,96.51
2022-10-13T03:02:06.624Z,96.31
2022-10-13T03:04:36.154Z,96.44
2022-10-13T03:07:05.763Z,96.62
2022-10-13T03:09:33.689Z,97.61
2022-10-13T03:12:01.677Z,96.70
2022-10-13T03:14:30.878Z,96.95
2022-10-13T03:16:58.811Z,97.10
2022-10-13T03:19:26.794Z,97.27
2022-10-13T03:21:55.283Z,98.62
2022-10-13T03:24:24.557Z,98.86
2022-10-13T03:26:52.486Z,99.45
2022-10-13T03:29:21.153Z,99.26
2022-10-13T03:31:49.088Z,98.97
2022-10-13T03:34:17.795Z,99.50
2022-10-13T03:36:45.718Z,99.28
2022-10-13T03:39:13.806Z,99.22
2022-10-13T03:41:43.423Z,99.59
2022-10-13T03:44:13.572Z,99.14
2022-10-13T03:46:41.675Z,99.44
2022-10-13T03:49:11.224Z,99.31
2022-10-13T03:51:39.419Z,99.58
2022-10-13T03:54:08.777Z,99.21
2022-10-13T03:56:38.429Z,99.07
2022-10-13T03:59:08.468Z,99.40
2022-10-13T04:01:36.656Z,99.05
2022-10-13T04:04:04.705Z,99.23
2022-10-13T04:06:32.950Z,98.89
2022-10-13T04:09:00.880Z,98.81
2022-10-13T04:11:28.781Z,98.35
2022-10-13T04:13:57.320Z,98.75
2022-10-13T04:16:28.268Z,98.58
2022-10-13T04:19:00.303Z,99.02
2022-10-13T04:21:29.217Z,99.12
2022-10-13T04:23:58.312Z,98.05
2022-10-13T04:26:28.639Z,97.87
2022-10-13T04:28:57.329Z,97.79
2022-10-13T04:31:28.869Z,98.37
2022-10-13T04:33:57.103Z,98.72
2022-10-13T04:36:25.231Z,98.50
2022-10-13T04:38:54.149Z,98.53
2022-10-13T04:41:22.873Z,98.95
2022-10-13T04:43:51.526Z,99.16
2022-10-13T04:46:21.035Z,99.25
2022-10-13T04:48:51.391Z,99.28
2022-10-13T04:51:22.989Z,99.64
2022-10-13T04:53:55.831Z,99.12
2022-10-13T04:56:23.707Z,99.21
2022-10-13T04:58:51.919Z,100.00
2022-10-13T05:01:22.768Z,100.00
2022-10-13T05:03:54.244Z,100.00
2022-10-13T05:06:24.581Z,100.00
2022-10-13T05:08:57.038Z,100.00
2022-10-13T05:11:25.524Z,100.00
2022-10-13T05:13:53.912Z,100.00
2022-10-13T05:16:22.870Z,100.00
2022-10-13T05:18:52.004Z,100.00
2022-10-13T05:21:23.983Z,100.00
2022-10-13T05:23:54.285Z,100.00
2022-10-13T05:26:23.789Z,100.00
2022-10-13T05:28:51.931Z,100.00
2022-10-13T05:31:21.890Z,100.00
2022-10-13T05:33:51.773Z,100.00
2022-10-13T05:36:26.495Z,100.00
2022-10-13T05:38:56.043Z,100.00
2022-10-13T05:41:25.462Z,100.00
2022-10-13T05:43:57.400Z,100.00
2022-10-13T05:46:25.849Z,100.00
2022-10-13T05:48:54.161Z,100.00
2022-10-13T05:51:27.059Z,100.00
2022-10-13T05:54:02.951Z,100.00
2022-10-13T05:56:33.930Z,100.00
2022-10-13T05:59:05.896Z,100.00
2022-10-13T06:01:37.817Z,99.96
2022-10-13T06:04:10.881Z,99.67
2022-10-13T06:06:40.852Z,99.90
2022-10-13T06:09:09.068Z,99.67
2022-10-13T06:11:37.036Z,100.00
2022-10-13T06:14:05.140Z,99.45
2022-10-13T06:16:33.333Z,98.70
2022-10-13T06:19:01.527Z,98.56
2022-10-13T06:21:29.548Z,98.53
2022-10-13T06:23:58.912Z,98.08
2022-10-13T06:26:26.919Z,98.18
2022-10-13T06:28:59.339Z,96.99
2022-10-13T06:31:28.876Z,97.47
2022-10-13T06:33:56.917Z,96.99
2022-10-13T06:36:24.883Z,96.96
2022-10-13T06:38:52.987Z,96.09
2022-10-13T06:41:23.718Z,96.56
2022-10-13T06:43:51.690Z,96.28
2022-10-13T06:46:19.553Z,96.19
2022-10-13T06:48:50.521Z,96.02
2022-10-13T06:51:18.733Z,95.08
2022-10-13T06:53:47.275Z,95.44
2022-10-13T06:56:15.611Z,95.52
2022-10-13T06:58:44.910Z,95.18
2022-10-13T07:01:15.018Z,94.92
2022-10-13T07:03:43.537Z,95.40
2022-10-13T07:06:11.797Z,94.42
2022-10-13T07:08:39.889Z,94.22
2022-10-13T07:11:14.521Z,93.14
2022-10-13T07:13:47.035Z,92.38
2022-10-13T07:16:17.042Z,91.72
2022-10-13T07:18:45.362Z,90.80
2022-10-13T07:21:13.268Z,90.94
2022-10-13T07:23:41.547Z,90.14
2022-10-13T07:26:10.077Z,91.11
2022-10-13T07:28:38.066Z,90.44
2022-10-13T07:31:11.892Z,90.77
2022-10-13T07:33:40.174Z,89.87
2022-10-13T07:36:08.960Z,88.61
2022-10-13T07:38:37.214Z,88.97
2022-10-13T07:41:07.111Z,87.77
2022-10-13T07:43:35.540Z,87.12
2022-10-13T07:46:07.071Z,85.38
2022-10-13T07:48:37.050Z,84.97
2022-10-13T07:51:07.303Z,85.66
2022-10-13T07:53:36.227Z,83.79
2022-10-13T07:56:05.915Z,83.18
2022-10-13T07:58:33.942Z,82.88
2022-10-13T08:01:02.945Z,82.52
2022-10-13T08:03:32.731Z,82.82
2022-10-13T08:06:03.253Z,82.28
2022-10-13T08:08:31.831Z,81.23
2022-10-13T08:11:03.021Z,80.73
2022-10-13T08:13:33.717Z,80.87
2022-10-13T08:16:11.411Z,81.40
2022-10-13T08:18:39.381Z,80.77
2022-10-13T08:24:02.782Z,81.68
2022-10-13T08:26:30.904Z,81.19
2022-10-13T08:31:47.113Z,79.20
2022-10-13T08:34:15.105Z,78.18
2022-10-13T08:36:44.340Z,77.96
2022-10-13T08:39:13.952Z,77.48
2022-10-13T08:41:44.856Z,76.93
2022-10-13T08:47:16.333Z,76.45
2022-10-13T08:49:46.279Z,76.41
2022-10-13T08:52:20.863Z,76.45
2022-10-13T08:54:49.885Z,76.72
2022-10-13T08:57:19.540Z,76.39
2022-10-13T08:59:48.068Z,78.19
2022-10-13T09:02:24.961Z,77.70
2022-10-13T09:04:54.288Z,78.03
2022-10-13T09:07:27.629Z,77.97
2022-10-13T09:09:57.072Z,77.62
2022-10-13T09:12:26.363Z,78.12
2022-10-13T09:15:01.361Z,77.48
2022-10-13T09:17:30.612Z,77.97
2022-10-13T09:20:05.559Z,77.45
2022-10-13T09:22:36.476Z,76.17
2022-10-13T09:25:19.210Z,75.62
2022-10-13T09:27:51.722Z,75.24
2022-10-13T09:30:27.689Z,75.03
2022-10-13T09:33:15.069Z,73.57
2022-10-13T09:35:45.439Z,74.00
2022-10-13T09:38:19.916Z,73.38
2022-10-13T09:40:59.657Z,72.96
2022-10-13T09:43:33.679Z,72.53
2022-10-13T09:46:03.524Z,72.48
2022-10-13T09:48:34.416Z,72.40
2022-10-13T09:51:02.901Z,72.42
2022-10-13T09:53:35.108Z,72.95
2022-10-13T09:56:21.987Z,71.78
2022-10-13T09:58:56.979Z,72.07
2022-10-13T10:01:33.887Z,72.34
2022-10-13T10:04:05.248Z,72.18
2022-10-13T10:06:33.338Z,71.65
2022-10-13T10:09:11.769Z,71.18
2022-10-13T10:11:42.676Z,70.77
2022-10-13T10:14:18.471Z,71.58
2022-10-13T10:16:51.923Z,71.04
2022-10-13T10:19:25.871Z,71.40
2022-10-13T10:22:04.284Z,69.99
2022-10-13T10:24:45.918Z,70.60
2022-10-13T10:29:54.093Z,69.55
2022-10-13T10:32:43.431Z,68.94
2022-10-13T10:35:15.592Z,69.66
2022-10-13T10:38:05.080Z,69.90
2022-10-13T10:40:51.806Z,69.95
2022-10-13T10:43:39.614Z,69.29
2022-10-13T10:46:17.064Z,69.15
2022-10-13T10:48:47.575Z,69.57
2022-10-13T10:51:16.151Z,68.27
2022-10-13T10:53:53.612Z,67.73
2022-10-13T10:56:31.516Z,66.82
2022-10-13T10:59:14.133Z,65.34
2022-10-13T11:01:47.552Z,65.60
2022-10-13T11:04:36.367Z,64.36
2022-10-13T11:07:04.650Z,64.06
2022-10-13T11:10:18.333Z,64.28
2022-10-13T11:13:16.464Z,64.52
2022-10-13T11:15:46.409Z,63.80
2022-10-13T11:18:51.825Z,64.53
2022-10-13T11:21:19.955Z,63.68
2022-10-13T11:23:49.738Z,63.28
2022-10-13T11:26:32.775Z,64.38
2022-10-13T11:29:02.071Z,64.89
2022-10-13T11:31:36.139Z,64.06
2022-10-13T11:34:04.938Z,63.29
2022-10-13T11:36:56.771Z,63.49
2022-10-13T11:39:59.261Z,63.18
2022-10-13T11:42:47.533Z,62.95
2022-10-13T11:45:39.431Z,63.23
2022-10-13T11:48:55.302Z,62.28
2022-10-13T11:51:39.555Z,61.55
2022-10-13T11:54:23.421Z,60.44
2022-10-13T11:56:53.283Z,60.28
2022-10-13T11:59:23.452Z,60.10
2022-10-13T12:01:57.986Z,59.83
2022-10-13T12:04:29.783Z,58.48
2022-10-13T12:07:02.031Z,58.45
2022-10-13T12:09:37.151Z,58.68
2022-10-13T12:12:20.174Z,57.78
2022-10-13T12:14:55.677Z,57.28
2022-10-13T12:17:31.187Z,56.83
2022-10-13T12:20:01.981Z,57.54
2022-10-13T12:22:30.216Z,56.67
2022-10-13T12:25:00.168Z,57.67
2022-10-13T12:27:32.502Z,57.04
2022-10-13T12:30:00.822Z,57.54
2022-10-13T12:32:32.409Z,57.64
2022-10-13T12:35:17.003Z,58.13
2022-10-13T12:37:45.246Z,57.73
2022-10-13T12:40:15.485Z,57.75
2022-10-13T12:42:44.859Z,58.09
2022-10-13T12:45:18.261Z,57.45
2022-10-13T12:47:52.536Z,56.91
2022-10-13T12:50:38.833Z,57.06
2022-10-13T12:53:13.574Z,56.64
2022-10-13T12:55:50.733Z,56.54
2022-10-13T12:58:23.805Z,55.17
2022-10-13T13:01:05.248Z,55.88
2022-10-13T13:03:37.185Z,56.48
2022-10-13T13:06:26.511Z,56.93
2022-10-13T13:09:21.843Z,56.77
2022-10-13T13:11:50.562Z,57.08
2022-10-13T13:14:45.743Z,57.55
2022-10-13T13:17:17.520Z,58.16
2022-10-13T13:19:58.263Z,58.17
2022-10-13T13:22:26.932Z,58.42
2022-10-13T13:24:55.218Z,58.03
2022-10-13T13:27:27.306Z,57.48
2022-10-13T13:29:56.402Z,57.76
2022-10-13T13:32:28.089Z,58.09
2022-10-13T13:34:57.518Z,58.01
2022-10-13T13:37:30.974Z,57.87
2022-10-13T13:39:59.008Z,57.41
2022-10-13T13:42:28.891Z,57.27
2022-10-13T13:44:57.490Z,58.29
2022-10-13T13:47:27.148Z,60.27
2022-10-13T13:49:56.216Z,59.85
2022-10-13T13:52:26.428Z,59.35
2022-10-13T13:54:56.191Z,59.92
2022-10-13T13:57:24.277Z,59.91
2022-10-13T13:59:54.866Z,59.50
2022-10-13T14:02:23.333Z,59.39
2022-10-13T14:04:51.468Z,59.94
2022-10-13T14:07:20.830Z,59.93
2022-10-13T14:09:51.966Z,60.02
2022-10-13T14:12:20.131Z,60.88
2022-10-13T14:14:48.951Z,61.16
2022-10-13T14:17:19.384Z,62.13
2022-10-13T14:19:47.401Z,61.90
2022-10-13T14:22:15.412Z,61.72
2022-10-13T14:24:43.728Z,61.83
2022-10-13T14:27:13.494Z,61.15
2022-10-13T14:29:41.634Z,60.79
2022-10-13T14:32:09.601Z,60.49
2022-10-13T14:34:37.563Z,60.33
2022-10-13T14:37:05.461Z,60.39
2022-10-13T14:39:33.424Z,59.42
2022-10-13T14:42:01.473Z,59.18
2022-10-13T14:44:30.808Z,59.37
2022-10-13T14:46:58.811Z,59.41
2022-10-13T14:49:26.969Z,58.81
2022-10-13T14:51:55.011Z,59.58
2022-10-13T14:54:23.001Z,58.92
2022-10-13T14:56:51.005Z,59.76
2022-10-13T14:59:19.110Z,60.01
2022-10-13T15:01:50.569Z,60.01
2022-10-13T15:04:18.733Z,60.58
2022-10-13T15:06:46.693Z,61.04
2022-10-13T15:09:14.688Z,61.43
2022-10-13T15:11:42.726Z,61.57
2022-10-13T15:14:10.917Z,61.57
2022-10-13T15:16:38.852Z,61.74
2022-10-13T15:19:08.240Z,62.29
2022-10-13T15:21:36.157Z,62.22
2022-10-13T15:24:04.633Z,62.48
2022-10-13T15:26:33.739Z,62.26
2022-10-13T15:29:01.828Z,62.35
2022-10-13T15:31:31.157Z,62.57
2022-10-13T15:33:59.171Z,62.66
2022-10-13T15:36:28.533Z,62.39
2022-10-13T15:38:56.497Z,62.90
2022-10-13T15:41:25.525Z,63.12
2022-10-13T15:43:53.842Z,63.91
2022-10-13T15:46:26.257Z,64.47
2022-10-13T15:48:55.562Z,64.78
2022-10-13T15:51:27.080Z,65.60
2022-10-13T15:53:56.689Z,66.09
2022-10-13T15:56:24.605Z,66.22
2022-10-13T15:58:52.669Z,66.64
2022-10-13T16:01:20.829Z,67.59
2022-10-13T16:03:49.046Z,67.95
2022-10-13T16:06:17.083Z,68.27
2022-10-13T16:08:45.108Z,68.08
2022-10-13T16:11:17.769Z,68.92
2022-10-13T16:13:47.779Z,69.04
2022-10-13T16:16:16.370Z,69.90
2022-10-13T16:18:45.074Z,70.07
2022-10-13T16:21:18.471Z,70.33
2022-10-13T16:23:47.231Z,70.84
2022-10-13T16:26:18.510Z,70.84
2022-10-13T16:28:47.215Z,70.84
2022-10-13T16:31:17.618Z,70.87
2022-10-13T16:33:46.565Z,71.49
2022-10-13T16:36:16.019Z,71.86
2022-10-13T16:38:44.080Z,72.41
2022-10-13T16:41:15.029Z,72.81
2022-10-13T16:43:45.065Z,72.88
2022-10-13T16:46:14.915Z,73.15
2022-10-13T16:48:44.636Z,73.45
2022-10-13T16:51:15.069Z,73.49
2022-10-13T16:53:43.620Z,73.71
2022-10-13T16:56:11.745Z,74.22
2022-10-13T16:58:44.923Z,73.79
2022-10-13T17:01:14.703Z,74.20
2022-10-13T17:03:45.069Z,74.55
2022-10-13T17:06:14.265Z,74.36
2022-10-13T17:08:43.495Z,74.83
2022-10-13T17:11:16.952Z,74.83
2022-10-13T17:13:45.270Z,74.68
2022-10-13T17:16:15.037Z,75.34
2022-10-13T17:18:45.778Z,75.37
2022-10-13T17:21:15.627Z,75.73
2022-10-13T17:23:48.384Z,75.87
2022-10-13T17:26:18.293Z,76.12
2022-10-13T17:28:47.178Z,76.88
2022-10-13T17:31:19.362Z,76.90
2022-10-13T17:33:49.385Z,77.45
2022-10-13T17:36:19.325Z,77.18
2022-10-13T17:38:49.443Z,78.02
2022-10-13T17:41:18.552Z,78.33
2022-10-13T17:43:50.785Z,78.57
2022-10-13T17:46:38.949Z,78.68
2022-10-13T17:49:08.362Z,78.29
2022-10-13T17:51:36.628Z,78.68
2022-10-13T17:54:20.552Z,77.91
2022-10-13T17:56:50.679Z,78.56
2022-10-13T17:59:20.039Z,77.93
2022-10-13T18:01:49.787Z,78.06
2022-10-13T18:04:19.910Z,77.42
2022-10-13T18:06:48.800Z,77.99
2022-10-13T18:09:19.342Z,77.43
2022-10-13T18:11:51.153Z,76.99
2022-10-13T18:14:20.185Z,78.17
2022-10-13T18:16:51.627Z,79.22
2022-10-13T18:19:20.677Z,78.61
2022-10-13T18:21:48.795Z,79.27
2022-10-13T18:24:16.790Z,78.66
2022-10-13T18:26:46.920Z,78.05
2022-10-13T18:29:15.569Z,78.58
2022-10-13T18:31:43.693Z,78.22
2022-10-13T18:34:15.600Z,78.78
2022-10-13T18:36:47.229Z,78.31
2022-10-13T18:39:32.846Z,78.36
2022-10-13T18:42:00.963Z,78.01
2022-10-13T18:44:35.367Z,78.28
2022-10-13T18:47:03.400Z,77.98
2022-10-13T18:49:35.016Z,78.22
2022-10-13T18:52:03.560Z,78.98
2022-10-13T18:54:31.931Z,78.83
2022-10-13T18:57:00.039Z,79.63
2022-10-13T18:59:27.979Z,80.62
2022-10-13T19:01:55.955Z,79.99
2022-10-13T19:04:26.151Z,79.27
2022-10-13T19:06:56.731Z,79.82
2022-10-13T19:12:18.617Z,80.22
2022-10-13T19:14:46.587Z,79.44
2022-10-13T19:17:14.591Z,79.95
2022-10-13T19:19:42.939Z,80.06
2022-10-13T19:22:15.139Z,80.26
2022-10-13T19:24:43.173Z,80.46
2022-10-13T19:27:12.010Z,80.46
2022-10-13T19:29:40.536Z,81.30
2022-10-13T19:32:08.415Z,81.29
2022-10-13T19:34:36.415Z,81.40
2022-10-13T19:37:07.315Z,81.59
2022-10-13T19:39:37.077Z,82.38
2022-10-13T19:42:05.400Z,82.45
2022-10-13T19:44:33.378Z,81.87
2022-10-13T19:47:01.405Z,81.83
2022-10-13T19:49:29.428Z,82.69
2022-10-13T19:51:57.502Z,83.18
2022-10-13T19:54:28.979Z,83.45
2022-10-13T19:57:01.292Z,83.76
2022-10-13T19:59:29.396Z,83.95
2022-10-13T20:01:58.866Z,84.97
2022-10-13T20:04:26.811Z,84.87
2022-10-13T20:06:54.729Z,85.65
2022-10-13T20:09:22.778Z,85.74
2022-10-13T20:11:52.786Z,86.49
2022-10-13T20:14:22.506Z,87.08
2022-10-13T20:16:50.516Z,87.14
2022-10-13T20:19:19.633Z,86.65
2022-10-13T20:21:51.689Z,87.24
2022-10-13T20:24:20.561Z,87.29
2022-10-13T20:26:48.681Z,87.48
2022-10-13T20:29:19.055Z,87.97
2022-10-13T20:31:48.486Z,87.99
2022-10-13T20:34:16.454Z,88.25
2022-10-13T20:36:45.604Z,88.69
2022-10-13T20:39:13.662Z,88.69
2022-10-13T20:41:41.583Z,88.76
2022-10-13T20:44:11.237Z,89.57
2022-10-13T20:46:40.031Z,90.38
2022-10-13T20:49:11.353Z,90.30
2022-10-13T20:51:40.802Z,90.96
2022-10-13T20:54:08.887Z,90.75
2022-10-13T20:56:36.961Z,90.72
2022-10-13T20:59:07.022Z,90.26
2022-10-13T21:01:35.662Z,90.78
2022-10-13T21:04:03.884Z,91.05
2022-10-13T21:06:33.245Z,90.43
2022-10-13T21:09:01.836Z,91.15
2022-10-13T21:11:29.845Z,91.38
2022-10-13T21:13:58.202Z,91.69
2022-10-13T21:16:29.332Z,91.68
2022-10-13T21:18:59.030Z,91.92
2022-10-13T21:21:28.632Z,91.75
2022-10-13T21:23:59.878Z,91.41
2022-10-13T21:26:30.021Z,91.14
2022-10-13T21:28:58.557Z,91.34
2022-10-13T21:31:27.457Z,90.78
2022-10-13T21:33:55.980Z,90.76
2022-10-13T21:36:26.031Z,91.40
2022-10-13T21:38:58.376Z,91.72
2022-10-13T21:41:27.171Z,91.49
2022-10-13T21:43:55.829Z,91.62
2022-10-13T21:46:25.961Z,91.82
2022-10-13T21:48:55.680Z,91.77
2022-10-13T21:51:25.886Z,91.81
2022-10-13T21:53:55.763Z,92.08
2022-10-13T21:56:26.863Z,91.92
2022-10-13T21:58:56.080Z,91.15
2022-10-13T22:01:24.666Z,91.59
2022-10-13T22:03:56.253Z,91.02
2022-10-13T22:06:28.064Z,91.37
2022-10-13T22:08:58.438Z,91.56
2022-10-13T22:11:29.936Z,91.57
2022-10-13T22:13:58.409Z,91.80
2022-10-13T22:16:28.938Z,91.02
2022-10-13T22:18:58.847Z,90.59
2022-10-13T22:21:29.083Z,90.68
2022-10-13T22:23:58.280Z,90.95
2022-10-13T22:26:29.733Z,91.59
2022-10-13T22:28:58.926Z,91.90
2022-10-13T22:31:27.859Z,91.29
2022-10-13T22:33:56.386Z,91.75
2022-10-13T22:36:26.621Z,91.70
2022-10-13T22:38:57.134Z,91.81
2022-10-13T22:41:25.526Z,91.28
2022-10-13T22:43:56.303Z,92.23
2022-10-13T22:46:26.163Z,91.85
2022-10-13T22:48:54.088Z,93.21
2022-10-13T22:51:23.867Z,92.89
2022-10-13T22:53:52.644Z,93.05
2022-10-13T22:56:22.869Z,93.87
2022-10-13T22:58:51.709Z,93.01
2022-10-13T23:01:22.031Z,93.73
2022-10-13T23:03:51.122Z,94.01
2022-10-13T23:06:20.975Z,94.31
2022-10-13T23:08:49.564Z,93.99
2022-10-13T23:11:18.140Z,94.47
2022-10-13T23:13:46.150Z,93.77
2022-10-13T23:16:16.704Z,94.20
2022-10-13T23:18:46.352Z,94.25
2022-10-13T23:21:26.010Z,93.96
2022-10-13T23:23:58.602Z,96.09
2022-10-13T23:26:27.481Z,96.33
2022-10-13T23:28:57.973Z,96.07
2022-10-13T23:31:27.492Z,95.44
2022-10-13T23:33:58.644Z,95.52
2022-10-13T23:36:29.099Z,95.38
2022-10-13T23:38:59.119Z,94.77
2022-10-13T23:41:27.735Z,95.47
2022-10-13T23:43:55.858Z,95.32
2022-10-13T23:46:23.950Z,94.72
2022-10-13T23:48:52.604Z,94.34
2022-10-13T23:51:23.473Z,95.42
2022-10-13T23:53:52.226Z,94.44
2022-10-13T23:56:20.246Z,95.07
2022-10-13T23:58:48.344Z,95.66
